sensor_id;sensor_type;location;lat;lon;timestamp;temperature;humidity
728;DHT22;347;48.780;9.158;2023-06-22T00:00:46;23.60;33.60
728;DHT22;347;48.780;9.158;2023-06-22T00:03:12;23.60;33.70
728;DHT22;347;48.780;9.158;2023-06-22T00:05:38;23.60;34.00
728;DHT22;347;48.780;9.158;2023-06-22T00:08:04;23.60;34.40
728;DHT22;347;48.780;9.158;2023-06-22T00:10:32;23.60;34.40
728;DHT22;347;48.780;9.158;2023-06-22T00:12:58;23.50;34.50
728;DHT22;347;48.780;9.158;2023-06-22T00:15:24;23.50;34.70
728;DHT22;347;48.780;9.158;2023-06-22T00:17:50;23.50;34.80
728;DHT22;347;48.780;9.158;2023-06-22T00:20:16;23.50;35.00
728;DHT22;347;48.780;9.158;2023-06-22T00:22:44;23.50;34.80
728;DHT22;347;48.780;9.158;2023-06-22T00:25:11;23.50;34.90
728;DHT22;347;48.780;9.158;2023-06-22T00:27:37;23.50;35.00
728;DHT22;347;48.780;9.158;2023-06-22T00:30:03;23.40;35.10
728;DHT22;347;48.780;9.158;2023-06-22T00:32:29;23.40;35.10
728;DHT22;347;48.780;9.158;2023-06-22T00:34:55;23.40;35.10
728;DHT22;347;48.780;9.158;2023-06-22T00:37:20;23.40;35.20
728;DHT22;347;48.780;9.158;2023-06-22T00:39:51;23.40;35.40
728;DHT22;347;48.780;9.158;2023-06-22T00:42:17;23.30;35.50
728;DHT22;347;48.780;9.158;2023-06-22T00:44:43;23.30;35.70
728;DHT22;347;48.780;9.158;2023-06-22T00:47:11;23.30;35.70
728;DHT22;347;48.780;9.158;2023-06-22T00:49:38;23.20;35.90
728;DHT22;347;48.780;9.158;2023-06-22T00:52:07;23.20;36.20
728;DHT22;347;48.780;9.158;2023-06-22T00:54:36;23.20;36.20
728;DHT22;347;48.780;9.158;2023-06-22T00:57:02;23.20;36.10
728;DHT22;347;48.780;9.158;2023-06-22T00:59:28;23.20;36.30
728;DHT22;347;48.780;9.158;2023-06-22T01:01:54;23.20;36.20
728;DHT22;347;48.780;9.158;2023-06-22T01:04:24;23.20;36.00
728;DHT22;347;48.780;9.158;2023-06-22T01:09:33;23.20;36.70
728;DHT22;347;48.780;9.158;2023-06-22T01:12:03;23.20;36.40
728;DHT22;347;48.780;9.158;2023-06-22T01:14:42;23.20;36.30
728;DHT22;347;48.780;9.158;2023-06-22T01:20:34;23.00;36.90
728;DHT22;347;48.780;9.158;2023-06-22T01:25:47;22.90;37.20
728;DHT22;347;48.780;9.158;2023-06-22T01:28:42;22.90;37.40
728;DHT22;347;48.780;9.158;2023-06-22T01:31:10;22.90;37.70
728;DHT22;347;48.780;9.158;2023-06-22T01:33:39;22.80;38.30
728;DHT22;347;48.780;9.158;2023-06-22T01:36:06;22.80;37.60
728;DHT22;347;48.780;9.158;2023-06-22T01:38:33;22.80;37.60
728;DHT22;347;48.780;9.158;2023-06-22T01:40:59;22.90;37.90
728;DHT22;347;48.780;9.158;2023-06-22T01:43:27;22.90;37.80
728;DHT22;347;48.780;9.158;2023-06-22T01:45:54;22.90;37.70
728;DHT22;347;48.780;9.158;2023-06-22T01:48:20;22.90;37.70
728;DHT22;347;48.780;9.158;2023-06-22T01:50:47;22.90;37.90
728;DHT22;347;48.780;9.158;2023-06-22T01:53:12;22.90;37.80
728;DHT22;347;48.780;9.158;2023-06-22T01:55:38;22.90;37.90
728;DHT22;347;48.780;9.158;2023-06-22T01:58:04;22.90;37.70
728;DHT22;347;48.780;9.158;2023-06-22T02:00:33;22.80;37.90
728;DHT22;347;48.780;9.158;2023-06-22T02:03:11;22.80;38.20
728;DHT22;347;48.780;9.158;2023-06-22T02:06:01;22.70;39.20
728;DHT22;347;48.780;9.158;2023-06-22T02:08:45;22.60;39.30
728;DHT22;347;48.780;9.158;2023-06-22T02:11:13;22.60;39.00
728;DHT22;347;48.780;9.158;2023-06-22T02:13:40;22.60;39.30
728;DHT22;347;48.780;9.158;2023-06-22T02:16:11;22.50;40.40
728;DHT22;347;48.780;9.158;2023-06-22T02:18:37;22.50;39.60
728;DHT22;347;48.780;9.158;2023-06-22T02:21:05;22.50;39.50
728;DHT22;347;48.780;9.158;2023-06-22T02:23:31;22.50;40.50
728;DHT22;347;48.780;9.158;2023-06-22T02:26:00;22.50;39.70
728;DHT22;347;48.780;9.158;2023-06-22T02:28:26;22.50;39.40
728;DHT22;347;48.780;9.158;2023-06-22T02:30:51;22.50;39.60
728;DHT22;347;48.780;9.158;2023-06-22T02:33:17;22.60;39.70
728;DHT22;347;48.780;9.158;2023-06-22T02:35:43;22.60;39.40
728;DHT22;347;48.780;9.158;2023-06-22T02:38:12;22.60;39.30
728;DHT22;347;48.780;9.158;2023-06-22T02:40:38;22.60;39.30
728;DHT22;347;48.780;9.158;2023-06-22T02:43:04;22.60;39.40
728;DHT22;347;48.780;9.158;2023-06-22T02:45:30;22.50;39.50
728;DHT22;347;48.780;9.158;2023-06-22T02:47:56;22.60;39.50
728;DHT22;347;48.780;9.158;2023-06-22T02:50:22;22.60;39.50
728;DHT22;347;48.780;9.158;2023-06-22T02:52:47;22.60;39.40
728;DHT22;347;48.780;9.158;2023-06-22T02:55:13;22.60;39.50
728;DHT22;347;48.780;9.158;2023-06-22T02:57:38;22.60;39.40
728;DHT22;347;48.780;9.158;2023-06-22T03:00:09;22.60;39.60
728;DHT22;347;48.780;9.158;2023-06-22T03:02:46;22.50;39.60
728;DHT22;347;48.780;9.158;2023-06-22T03:05:13;22.50;39.70
728;DHT22;347;48.780;9.158;2023-06-22T03:07:43;22.50;39.80
728;DHT22;347;48.780;9.158;2023-06-22T03:10:12;22.50;39.60
728;DHT22;347;48.780;9.158;2023-06-22T03:12:39;22.50;39.70
728;DHT22;347;48.780;9.158;2023-06-22T03:15:06;22.50;39.40
728;DHT22;347;48.780;9.158;2023-06-22T03:17:33;22.50;39.50
728;DHT22;347;48.780;9.158;2023-06-22T03:19:58;22.50;39.80
728;DHT22;347;48.780;9.158;2023-06-22T03:22:24;22.40;39.80
728;DHT22;347;48.780;9.158;2023-06-22T03:24:50;22.40;40.20
728;DHT22;347;48.780;9.158;2023-06-22T03:27:15;22.40;40.20
728;DHT22;347;48.780;9.158;2023-06-22T03:29:41;22.40;40.00
728;DHT22;347;48.780;9.158;2023-06-22T03:32:06;22.30;39.80
728;DHT22;347;48.780;9.158;2023-06-22T03:34:32;22.30;39.50
728;DHT22;347;48.780;9.158;2023-06-22T03:37:04;22.40;39.60
728;DHT22;347;48.780;9.158;2023-06-22T03:39:31;22.30;39.70
728;DHT22;347;48.780;9.158;2023-06-22T03:41:56;22.30;39.70
728;DHT22;347;48.780;9.158;2023-06-22T03:44:22;22.30;39.90
728;DHT22;347;48.780;9.158;2023-06-22T03:46:47;22.20;39.70
728;DHT22;347;48.780;9.158;2023-06-22T03:49:13;22.30;39.90
728;DHT22;347;48.780;9.158;2023-06-22T03:51:39;22.20;40.00
728;DHT22;347;48.780;9.158;2023-06-22T03:54:04;22.20;40.00
728;DHT22;347;48.780;9.158;2023-06-22T03:56:30;22.20;39.70
728;DHT22;347;48.780;9.158;2023-06-22T03:58:56;22.20;39.80
728;DHT22;347;48.780;9.158;2023-06-22T04:01:22;22.20;39.80
728;DHT22;347;48.780;9.158;2023-06-22T04:03:48;22.20;39.90
728;DHT22;347;48.780;9.158;2023-06-22T04:06:15;22.20;39.90
728;DHT22;347;48.780;9.158;2023-06-22T04:08:40;22.20;40.00
728;DHT22;347;48.780;9.158;2023-06-22T04:11:06;22.20;39.90
728;DHT22;347;48.780;9.158;2023-06-22T04:13:32;22.20;40.00
728;DHT22;347;48.780;9.158;2023-06-22T04:15:57;22.20;40.00
728;DHT22;347;48.780;9.158;2023-06-22T04:18:23;22.20;40.10
728;DHT22;347;48.780;9.158;2023-06-22T04:20:49;22.20;39.90
728;DHT22;347;48.780;9.158;2023-06-22T04:23:14;22.20;40.10
728;DHT22;347;48.780;9.158;2023-06-22T04:25:40;22.20;40.10
728;DHT22;347;48.780;9.158;2023-06-22T04:28:06;22.20;40.20
728;DHT22;347;48.780;9.158;2023-06-22T04:30:37;22.20;40.20
728;DHT22;347;48.780;9.158;2023-06-22T04:33:14;22.20;40.20
728;DHT22;347;48.780;9.158;2023-06-22T04:35:40;22.20;40.00
728;DHT22;347;48.780;9.158;2023-06-22T04:38:09;22.20;40.00
728;DHT22;347;48.780;9.158;2023-06-22T04:40:34;22.30;40.10
728;DHT22;347;48.780;9.158;2023-06-22T04:43:00;22.20;39.80
728;DHT22;347;48.780;9.158;2023-06-22T04:45:28;22.10;40.50
728;DHT22;347;48.780;9.158;2023-06-22T04:47:57;22.00;41.50
728;DHT22;347;48.780;9.158;2023-06-22T04:50:23;22.00;41.20
728;DHT22;347;48.780;9.158;2023-06-22T04:52:49;22.00;41.20
728;DHT22;347;48.780;9.158;2023-06-22T04:55:15;22.10;41.30
728;DHT22;347;48.780;9.158;2023-06-22T04:57:46;22.10;41.20
728;DHT22;347;48.780;9.158;2023-06-22T05:00:18;22.10;41.30
728;DHT22;347;48.780;9.158;2023-06-22T05:02:45;22.20;41.10
728;DHT22;347;48.780;9.158;2023-06-22T05:05:12;22.20;40.60
728;DHT22;347;48.780;9.158;2023-06-22T05:07:46;22.20;40.50
728;DHT22;347;48.780;9.158;2023-06-22T05:10:14;22.30;40.30
728;DHT22;347;48.780;9.158;2023-06-22T05:12:40;22.30;40.30
728;DHT22;347;48.780;9.158;2023-06-22T05:15:07;22.30;40.40
728;DHT22;347;48.780;9.158;2023-06-22T05:17:34;22.30;40.50
728;DHT22;347;48.780;9.158;2023-06-22T05:20:00;22.30;40.30
728;DHT22;347;48.780;9.158;2023-06-22T05:22:26;22.40;40.30
728;DHT22;347;48.780;9.158;2023-06-22T05:24:52;22.30;39.90
728;DHT22;347;48.780;9.158;2023-06-22T05:27:17;22.40;40.20
728;DHT22;347;48.780;9.158;2023-06-22T05:29:43;22.40;40.00
728;DHT22;347;48.780;9.158;2023-06-22T05:32:09;22.40;39.30
728;DHT22;347;48.780;9.158;2023-06-22T05:34:35;22.40;39.40
728;DHT22;347;48.780;9.158;2023-06-22T05:37:01;22.50;39.50
728;DHT22;347;48.780;9.158;2023-06-22T05:39:27;22.50;39.10
728;DHT22;347;48.780;9.158;2023-06-22T05:41:52;22.50;38.80
728;DHT22;347;48.780;9.158;2023-06-22T05:44:18;22.60;38.60
728;DHT22;347;48.780;9.158;2023-06-22T05:46:44;22.60;38.50
728;DHT22;347;48.780;9.158;2023-06-22T05:49:14;22.60;38.60
728;DHT22;347;48.780;9.158;2023-06-22T05:51:41;22.60;38.40
728;DHT22;347;48.780;9.158;2023-06-22T05:54:07;22.60;38.40
728;DHT22;347;48.780;9.158;2023-06-22T05:56:34;22.60;38.50
728;DHT22;347;48.780;9.158;2023-06-22T05:59:00;22.60;38.10
728;DHT22;347;48.780;9.158;2023-06-22T06:01:25;22.70;38.20
728;DHT22;347;48.780;9.158;2023-06-22T06:03:51;22.70;37.50
728;DHT22;347;48.780;9.158;2023-06-22T06:06:18;22.70;37.60
728;DHT22;347;48.780;9.158;2023-06-22T06:08:46;22.70;37.50
728;DHT22;347;48.780;9.158;2023-06-22T06:11:12;22.70;37.40
728;DHT22;347;48.780;9.158;2023-06-22T06:13:37;22.80;37.30
728;DHT22;347;48.780;9.158;2023-06-22T06:16:04;22.80;37.20
728;DHT22;347;48.780;9.158;2023-06-22T06:18:30;22.80;37.00
728;DHT22;347;48.780;9.158;2023-06-22T06:20:55;22.80;36.90
728;DHT22;347;48.780;9.158;2023-06-22T06:23:21;22.80;36.90
728;DHT22;347;48.780;9.158;2023-06-22T06:25:47;22.80;36.60
728;DHT22;347;48.780;9.158;2023-06-22T06:28:12;22.80;36.50
728;DHT22;347;48.780;9.158;2023-06-22T06:30:38;22.90;36.40
728;DHT22;347;48.780;9.158;2023-06-22T06:33:04;23.00;36.00
728;DHT22;347;48.780;9.158;2023-06-22T06:35:34;23.00;35.90
728;DHT22;347;48.780;9.158;2023-06-22T06:38:00;23.00;35.70
728;DHT22;347;48.780;9.158;2023-06-22T06:40:26;23.10;35.50
728;DHT22;347;48.780;9.158;2023-06-22T06:42:51;23.10;35.10
728;DHT22;347;48.780;9.158;2023-06-22T06:45:20;23.10;35.10
728;DHT22;347;48.780;9.158;2023-06-22T06:47:47;23.20;35.20
728;DHT22;347;48.780;9.158;2023-06-22T06:50:13;23.20;35.10
728;DHT22;347;48.780;9.158;2023-06-22T06:52:39;23.20;34.50
728;DHT22;347;48.780;9.158;2023-06-22T06:55:06;23.30;34.40
728;DHT22;347;48.780;9.158;2023-06-22T06:57:35;23.30;34.40
728;DHT22;347;48.780;9.158;2023-06-22T07:00:02;23.30;34.50
728;DHT22;347;48.780;9.158;2023-06-22T07:02:33;23.30;33.20
728;DHT22;347;48.780;9.158;2023-06-22T07:04:58;23.40;33.70
728;DHT22;347;48.780;9.158;2023-06-22T07:07:24;23.40;33.10
728;DHT22;347;48.780;9.158;2023-06-22T07:09:50;23.60;33.00
728;DHT22;347;48.780;9.158;2023-06-22T07:12:15;23.60;33.00
728;DHT22;347;48.780;9.158;2023-06-22T07:14:41;23.60;33.00
728;DHT22;347;48.780;9.158;2023-06-22T07:17:07;23.70;33.10
728;DHT22;347;48.780;9.158;2023-06-22T07:19:33;23.70;33.10
728;DHT22;347;48.780;9.158;2023-06-22T07:21:58;23.80;32.50
728;DHT22;347;48.780;9.158;2023-06-22T07:24:24;24.00;30.90
728;DHT22;347;48.780;9.158;2023-06-22T07:26:50;24.00;31.70
728;DHT22;347;48.780;9.158;2023-06-22T07:29:20;24.00;31.40
728;DHT22;347;48.780;9.158;2023-06-22T07:31:47;24.00;31.10
728;DHT22;347;48.780;9.158;2023-06-22T07:34:13;24.10;31.30
728;DHT22;347;48.780;9.158;2023-06-22T07:36:39;24.10;31.20
728;DHT22;347;48.780;9.158;2023-06-22T07:39:04;24.10;31.30
728;DHT22;347;48.780;9.158;2023-06-22T07:41:31;24.20;31.10
728;DHT22;347;48.780;9.158;2023-06-22T07:43:56;24.20;30.20
728;DHT22;347;48.780;9.158;2023-06-22T07:46:23;24.30;29.90
728;DHT22;347;48.780;9.158;2023-06-22T07:48:49;24.30;30.30
728;DHT22;347;48.780;9.158;2023-06-22T07:51:14;24.30;30.30
728;DHT22;347;48.780;9.158;2023-06-22T07:53:44;24.40;30.60
728;DHT22;347;48.780;9.158;2023-06-22T07:56:13;24.50;30.00
728;DHT22;347;48.780;9.158;2023-06-22T07:58:39;24.60;29.90
728;DHT22;347;48.780;9.158;2023-06-22T08:01:05;24.60;30.00
728;DHT22;347;48.780;9.158;2023-06-22T08:03:32;24.60;30.00
728;DHT22;347;48.780;9.158;2023-06-22T08:05:58;24.60;30.30
728;DHT22;347;48.780;9.158;2023-06-22T08:08:23;24.70;29.80
728;DHT22;347;48.780;9.158;2023-06-22T08:10:49;24.70;29.40
728;DHT22;347;48.780;9.158;2023-06-22T08:13:15;24.70;29.50
728;DHT22;347;48.780;9.158;2023-06-22T08:15:41;24.70;29.60
728;DHT22;347;48.780;9.158;2023-06-22T08:18:06;24.70;29.50
728;DHT22;347;48.780;9.158;2023-06-22T08:20:32;24.80;29.10
728;DHT22;347;48.780;9.158;2023-06-22T08:22:58;24.80;28.80
728;DHT22;347;48.780;9.158;2023-06-22T08:25:26;24.80;29.00
728;DHT22;347;48.780;9.158;2023-06-22T08:27:51;24.80;28.70
728;DHT22;347;48.780;9.158;2023-06-22T08:30:17;24.90;28.50
728;DHT22;347;48.780;9.158;2023-06-22T08:32:44;24.90;28.30
728;DHT22;347;48.780;9.158;2023-06-22T08:35:10;24.90;28.30
728;DHT22;347;48.780;9.158;2023-06-22T08:37:36;25.00;27.80
728;DHT22;347;48.780;9.158;2023-06-22T08:40:04;25.00;27.90
728;DHT22;347;48.780;9.158;2023-06-22T08:42:30;25.10;27.90
728;DHT22;347;48.780;9.158;2023-06-22T08:44:56;25.10;27.60
728;DHT22;347;48.780;9.158;2023-06-22T08:47:22;25.10;27.80
728;DHT22;347;48.780;9.158;2023-06-22T08:49:48;25.20;27.30
728;DHT22;347;48.780;9.158;2023-06-22T08:52:14;25.30;27.10
728;DHT22;347;48.780;9.158;2023-06-22T08:54:40;25.50;26.20
728;DHT22;347;48.780;9.158;2023-06-22T08:57:06;25.60;25.80
728;DHT22;347;48.780;9.158;2023-06-22T08:59:32;25.80;25.50
728;DHT22;347;48.780;9.158;2023-06-22T09:01:58;25.80;25.20
728;DHT22;347;48.780;9.158;2023-06-22T09:04:24;25.90;25.00
728;DHT22;347;48.780;9.158;2023-06-22T09:06:50;26.10;24.70
728;DHT22;347;48.780;9.158;2023-06-22T09:09:17;26.10;25.00
728;DHT22;347;48.780;9.158;2023-06-22T09:11:43;26.20;24.40
728;DHT22;347;48.780;9.158;2023-06-22T09:14:10;26.30;23.60
728;DHT22;347;48.780;9.158;2023-06-22T09:16:36;26.40;23.50
728;DHT22;347;48.780;9.158;2023-06-22T09:19:02;26.50;23.30
728;DHT22;347;48.780;9.158;2023-06-22T09:21:28;26.50;23.10
728;DHT22;347;48.780;9.158;2023-06-22T09:23:54;26.70;23.10
728;DHT22;347;48.780;9.158;2023-06-22T09:26:21;26.80;22.60
728;DHT22;347;48.780;9.158;2023-06-22T09:28:49;26.80;22.60
728;DHT22;347;48.780;9.158;2023-06-22T09:31:15;26.90;22.30
728;DHT22;347;48.780;9.158;2023-06-22T09:33:42;27.00;22.20
728;DHT22;347;48.780;9.158;2023-06-22T09:36:08;27.20;21.30
728;DHT22;347;48.780;9.158;2023-06-22T09:38:38;27.20;21.00
728;DHT22;347;48.780;9.158;2023-06-22T09:41:04;27.20;21.60
728;DHT22;347;48.780;9.158;2023-06-22T09:43:31;27.10;21.90
728;DHT22;347;48.780;9.158;2023-06-22T09:45:57;27.10;21.90
728;DHT22;347;48.780;9.158;2023-06-22T09:48:23;27.40;20.90
728;DHT22;347;48.780;9.158;2023-06-22T09:50:48;27.50;20.50
728;DHT22;347;48.780;9.158;2023-06-22T09:53:14;27.60;21.00
728;DHT22;347;48.780;9.158;2023-06-22T09:55:40;27.70;20.20
728;DHT22;347;48.780;9.158;2023-06-22T09:58:05;27.80;20.40
728;DHT22;347;48.780;9.158;2023-06-22T10:00:31;28.00;19.80
728;DHT22;347;48.780;9.158;2023-06-22T10:02:57;28.20;19.20
728;DHT22;347;48.780;9.158;2023-06-22T10:05:23;28.20;19.40
728;DHT22;347;48.780;9.158;2023-06-22T10:07:49;28.20;19.00
728;DHT22;347;48.780;9.158;2023-06-22T10:10:14;28.30;19.10
728;DHT22;347;48.780;9.158;2023-06-22T10:12:54;28.40;18.60
728;DHT22;347;48.780;9.158;2023-06-22T10:15:20;28.40;18.50
728;DHT22;347;48.780;9.158;2023-06-22T10:17:46;28.50;18.30
728;DHT22;347;48.780;9.158;2023-06-22T10:20:13;28.40;19.10
728;DHT22;347;48.780;9.158;2023-06-22T10:22:44;28.40;19.00
728;DHT22;347;48.780;9.158;2023-06-22T10:25:11;28.30;19.10
728;DHT22;347;48.780;9.158;2023-06-22T10:27:37;28.30;19.60
728;DHT22;347;48.780;9.158;2023-06-22T10:30:09;28.30;19.90
728;DHT22;347;48.780;9.158;2023-06-22T10:32:37;28.30;20.10
728;DHT22;347;48.780;9.158;2023-06-22T10:35:03;28.30;19.10
728;DHT22;347;48.780;9.158;2023-06-22T10:37:28;28.50;18.30
728;DHT22;347;48.780;9.158;2023-06-22T10:39:54;28.80;18.40
728;DHT22;347;48.780;9.158;2023-06-22T10:42:20;28.90;17.80
728;DHT22;347;48.780;9.158;2023-06-22T10:44:46;29.00;17.80
728;DHT22;347;48.780;9.158;2023-06-22T10:47:11;29.10;17.30
728;DHT22;347;48.780;9.158;2023-06-22T10:49:41;29.10;17.80
728;DHT22;347;48.780;9.158;2023-06-22T10:52:07;28.90;18.40
728;DHT22;347;48.780;9.158;2023-06-22T10:54:34;28.90;18.30
728;DHT22;347;48.780;9.158;2023-06-22T10:57:01;28.90;18.00
728;DHT22;347;48.780;9.158;2023-06-22T10:59:26;28.80;18.40
728;DHT22;347;48.780;9.158;2023-06-22T11:01:54;28.70;18.40
728;DHT22;347;48.780;9.158;2023-06-22T11:04:20;28.60;18.30
728;DHT22;347;48.780;9.158;2023-06-22T11:06:46;28.50;18.30
728;DHT22;347;48.780;9.158;2023-06-22T11:09:11;28.50;18.30
728;DHT22;347;48.780;9.158;2023-06-22T11:11:37;28.70;18.00
728;DHT22;347;48.780;9.158;2023-06-22T11:14:02;28.80;17.20
728;DHT22;347;48.780;9.158;2023-06-22T11:16:28;28.80;17.30
728;DHT22;347;48.780;9.158;2023-06-22T11:18:54;28.80;18.40
728;DHT22;347;48.780;9.158;2023-06-22T11:21:19;28.80;18.20
728;DHT22;347;48.780;9.158;2023-06-22T11:23:45;28.80;18.20
728;DHT22;347;48.780;9.158;2023-06-22T11:26:11;28.90;18.30
728;DHT22;347;48.780;9.158;2023-06-22T11:28:36;28.90;18.50
728;DHT22;347;48.780;9.158;2023-06-22T11:31:02;28.80;17.80
728;DHT22;347;48.780;9.158;2023-06-22T11:33:28;28.80;18.30
728;DHT22;347;48.780;9.158;2023-06-22T11:35:54;28.80;18.40
728;DHT22;347;48.780;9.158;2023-06-22T11:38:21;28.70;18.20
728;DHT22;347;48.780;9.158;2023-06-22T11:40:47;28.70;18.00
728;DHT22;347;48.780;9.158;2023-06-22T11:43:13;28.80;18.40
728;DHT22;347;48.780;9.158;2023-06-22T11:45:40;28.70;19.10
728;DHT22;347;48.780;9.158;2023-06-22T11:48:06;28.70;18.40
728;DHT22;347;48.780;9.158;2023-06-22T11:50:32;28.80;18.40
728;DHT22;347;48.780;9.158;2023-06-22T11:53:02;28.90;18.60
728;DHT22;347;48.780;9.158;2023-06-22T11:55:28;28.80;19.00
728;DHT22;347;48.780;9.158;2023-06-22T11:57:55;28.70;18.70
728;DHT22;347;48.780;9.158;2023-06-22T12:00:24;28.60;19.20
728;DHT22;347;48.780;9.158;2023-06-22T12:02:52;28.60;19.20
728;DHT22;347;48.780;9.158;2023-06-22T12:05:21;28.50;19.50
728;DHT22;347;48.780;9.158;2023-06-22T12:07:48;28.40;20.30
728;DHT22;347;48.780;9.158;2023-06-22T12:10:14;28.40;19.10
728;DHT22;347;48.780;9.158;2023-06-22T12:12:40;28.50;18.30
728;DHT22;347;48.780;9.158;2023-06-22T12:15:06;28.60;18.30
728;DHT22;347;48.780;9.158;2023-06-22T12:17:33;28.60;18.80
728;DHT22;347;48.780;9.158;2023-06-22T12:19:59;28.70;19.20
728;DHT22;347;48.780;9.158;2023-06-22T12:22:24;28.80;19.50
728;DHT22;347;48.780;9.158;2023-06-22T12:24:50;28.70;19.80
728;DHT22;347;48.780;9.158;2023-06-22T12:27:17;28.60;20.30
728;DHT22;347;48.780;9.158;2023-06-22T12:29:46;28.60;20.70
728;DHT22;347;48.780;9.158;2023-06-22T12:32:13;28.60;20.20
728;DHT22;347;48.780;9.158;2023-06-22T12:34:40;28.60;20.90
728;DHT22;347;48.780;9.158;2023-06-22T12:37:05;28.50;20.40
728;DHT22;347;48.780;9.158;2023-06-22T12:39:32;28.50;20.60
728;DHT22;347;48.780;9.158;2023-06-22T12:41:57;28.40;20.90
728;DHT22;347;48.780;9.158;2023-06-22T12:44:23;28.40;21.40
728;DHT22;347;48.780;9.158;2023-06-22T12:46:49;28.50;19.80
728;DHT22;347;48.780;9.158;2023-06-22T12:49:15;28.60;19.60
728;DHT22;347;48.780;9.158;2023-06-22T12:51:41;28.60;20.40
728;DHT22;347;48.780;9.158;2023-06-22T12:54:10;28.60;20.70
728;DHT22;347;48.780;9.158;2023-06-22T12:56:37;28.70;20.00
728;DHT22;347;48.780;9.158;2023-06-22T12:59:04;28.70;20.00
728;DHT22;347;48.780;9.158;2023-06-22T13:01:33;28.80;19.40
728;DHT22;347;48.780;9.158;2023-06-22T13:03:59;28.80;20.00
728;DHT22;347;48.780;9.158;2023-06-22T13:06:25;28.70;20.30
728;DHT22;347;48.780;9.158;2023-06-22T13:08:50;28.80;19.70
728;DHT22;347;48.780;9.158;2023-06-22T13:11:16;28.70;20.40
728;DHT22;347;48.780;9.158;2023-06-22T13:13:44;28.80;19.30
728;DHT22;347;48.780;9.158;2023-06-22T13:16:10;28.90;19.50
728;DHT22;347;48.780;9.158;2023-06-22T13:18:36;28.80;19.70
728;DHT22;347;48.780;9.158;2023-06-22T13:21:05;28.80;19.90
728;DHT22;347;48.780;9.158;2023-06-22T13:23:31;28.90;20.40
728;DHT22;347;48.780;9.158;2023-06-22T13:25:58;28.90;20.40
728;DHT22;347;48.780;9.158;2023-06-22T13:28:23;28.80;21.20
728;DHT22;347;48.780;9.158;2023-06-22T13:30:49;28.70;21.40
728;DHT22;347;48.780;9.158;2023-06-22T13:33:15;28.60;21.60
728;DHT22;347;48.780;9.158;2023-06-22T13:35:41;28.60;22.50
728;DHT22;347;48.780;9.158;2023-06-22T13:38:09;28.60;21.00
728;DHT22;347;48.780;9.158;2023-06-22T13:40:36;28.60;21.30
728;DHT22;347;48.780;9.158;2023-06-22T13:43:06;28.60;21.60
728;DHT22;347;48.780;9.158;2023-06-22T13:45:32;28.50;22.00
728;DHT22;347;48.780;9.158;2023-06-22T13:47:58;28.50;22.40
728;DHT22;347;48.780;9.158;2023-06-22T13:50:24;28.40;21.00
728;DHT22;347;48.780;9.158;2023-06-22T13:52:49;28.40;22.00
728;DHT22;347;48.780;9.158;2023-06-22T13:55:15;28.40;22.40
728;DHT22;347;48.780;9.158;2023-06-22T13:57:42;28.30;21.80
728;DHT22;347;48.780;9.158;2023-06-22T14:00:08;28.40;21.30
728;DHT22;347;48.780;9.158;2023-06-22T14:02:34;28.30;20.50
728;DHT22;347;48.780;9.158;2023-06-22T14:05:00;28.40;19.90
728;DHT22;347;48.780;9.158;2023-06-22T14:07:26;28.50;20.20
728;DHT22;347;48.780;9.158;2023-06-22T14:09:52;28.50;20.50
728;DHT22;347;48.780;9.158;2023-06-22T14:12:17;28.50;21.00
728;DHT22;347;48.780;9.158;2023-06-22T14:14:43;28.60;19.80
728;DHT22;347;48.780;9.158;2023-06-22T14:17:09;28.80;19.10
728;DHT22;347;48.780;9.158;2023-06-22T14:19:35;28.90;18.50
728;DHT22;347;48.780;9.158;2023-06-22T14:22:01;29.10;18.10
728;DHT22;347;48.780;9.158;2023-06-22T14:24:26;29.10;18.10
728;DHT22;347;48.780;9.158;2023-06-22T14:26:53;29.00;18.50
728;DHT22;347;48.780;9.158;2023-06-22T14:29:19;29.10;18.20
728;DHT22;347;48.780;9.158;2023-06-22T14:31:45;29.00;17.80
728;DHT22;347;48.780;9.158;2023-06-22T14:34:12;29.10;16.30
728;DHT22;347;48.780;9.158;2023-06-22T14:36:37;29.20;16.00
728;DHT22;347;48.780;9.158;2023-06-22T14:39:03;29.50;15.50
728;DHT22;347;48.780;9.158;2023-06-22T14:41:30;29.70;14.60
728;DHT22;347;48.780;9.158;2023-06-22T14:43:56;29.70;14.50
728;DHT22;347;48.780;9.158;2023-06-22T14:46:21;29.80;14.50
728;DHT22;347;48.780;9.158;2023-06-22T14:48:47;29.90;13.20
728;DHT22;347;48.780;9.158;2023-06-22T14:51:13;30.10;12.70
728;DHT22;347;48.780;9.158;2023-06-22T14:53:39;30.30;11.70
728;DHT22;347;48.780;9.158;2023-06-22T14:56:05;30.40;12.20
728;DHT22;347;48.780;9.158;2023-06-22T14:58:31;30.40;11.50
728;DHT22;347;48.780;9.158;2023-06-22T15:01:02;30.50;11.30
728;DHT22;347;48.780;9.158;2023-06-22T15:03:28;30.40;7.70
728;DHT22;347;48.780;9.158;2023-06-22T15:05:56;30.30;6.60
728;DHT22;347;48.780;9.158;2023-06-22T15:08:22;30.40;5.70
728;DHT22;347;48.780;9.158;2023-06-22T15:10:47;30.50;5.00
728;DHT22;347;48.780;9.158;2023-06-22T15:13:13;30.60;4.40
728;DHT22;347;48.780;9.158;2023-06-22T15:15:39;30.70;4.80
728;DHT22;347;48.780;9.158;2023-06-22T15:18:04;30.70;4.20
728;DHT22;347;48.780;9.158;2023-06-22T15:20:30;30.70;3.80
728;DHT22;347;48.780;9.158;2023-06-22T15:22:57;30.70;4.40
728;DHT22;347;48.780;9.158;2023-06-22T15:25:23;30.60;4.30
728;DHT22;347;48.780;9.158;2023-06-22T15:27:48;30.60;4.50
728;DHT22;347;48.780;9.158;2023-06-22T15:30:14;30.70;3.80
728;DHT22;347;48.780;9.158;2023-06-22T15:32:44;30.70;3.60
728;DHT22;347;48.780;9.158;2023-06-22T15:35:13;30.80;3.60
728;DHT22;347;48.780;9.158;2023-06-22T15:37:39;30.80;2.50
728;DHT22;347;48.780;9.158;2023-06-22T15:40:06;30.90;2.40
728;DHT22;347;48.780;9.158;2023-06-22T15:42:32;31.00;2.00
728;DHT22;347;48.780;9.158;2023-06-22T15:44:57;31.00;2.10
728;DHT22;347;48.780;9.158;2023-06-22T15:47:23;31.00;2.30
728;DHT22;347;48.780;9.158;2023-06-22T15:49:49;31.00;2.60
728;DHT22;347;48.780;9.158;2023-06-22T15:52:15;31.00;2.80
728;DHT22;347;48.780;9.158;2023-06-22T15:54:45;31.00;2.30
728;DHT22;347;48.780;9.158;2023-06-22T15:57:10;31.00;2.80
728;DHT22;347;48.780;9.158;2023-06-22T15:59:40;30.90;2.80
728;DHT22;347;48.780;9.158;2023-06-22T16:02:06;30.80;3.00
728;DHT22;347;48.780;9.158;2023-06-22T16:04:32;30.80;4.00
728;DHT22;347;48.780;9.158;2023-06-22T16:06:58;30.80;3.80
728;DHT22;347;48.780;9.158;2023-06-22T16:09:24;30.70;4.10
728;DHT22;347;48.780;9.158;2023-06-22T16:11:49;30.60;4.20
728;DHT22;347;48.780;9.158;2023-06-22T16:14:15;30.50;4.20
728;DHT22;347;48.780;9.158;2023-06-22T16:16:41;30.50;3.70
728;DHT22;347;48.780;9.158;2023-06-22T16:19:06;30.40;3.60
728;DHT22;347;48.780;9.158;2023-06-22T16:21:32;30.30;3.90
728;DHT22;347;48.780;9.158;2023-06-22T16:23:58;30.30;3.70
728;DHT22;347;48.780;9.158;2023-06-22T16:26:23;30.20;4.00
728;DHT22;347;48.780;9.158;2023-06-22T16:28:49;30.10;4.20
728;DHT22;347;48.780;9.158;2023-06-22T16:31:15;30.10;3.80
728;DHT22;347;48.780;9.158;2023-06-22T16:33:41;30.00;4.00
728;DHT22;347;48.780;9.158;2023-06-22T16:36:16;29.90;4.30
728;DHT22;347;48.780;9.158;2023-06-22T16:38:42;29.90;4.90
728;DHT22;347;48.780;9.158;2023-06-22T16:41:08;29.80;5.40